createdAt,value
2022-12-18T00:02:14.694Z,39.60
2022-12-18T00:04:41.388Z,39.53
2022-12-18T00:07:08.046Z,33.70
2022-12-18T00:09:40.005Z,34.25
2022-12-18T00:14:45.457Z,36.20
2022-12-18T00:17:12.269Z,35.25
2022-12-18T00:19:38.957Z,36.78
2022-12-18T00:22:07.068Z,37.50
2022-12-18T00:24:33.813Z,34.13
2022-12-18T00:27:00.432Z,31.67
2022-12-18T00:29:27.077Z,33.55
2022-12-18T00:31:53.749Z,32.72
2022-12-18T00:34:20.366Z,38.90
2022-12-18T00:36:48.938Z,35.80
2022-12-18T00:39:15.610Z,34.17
2022-12-18T00:42:00.323Z,30.83
2022-12-18T00:44:26.940Z,30.55
2022-12-18T00:46:53.513Z,33.97
2022-12-18T00:49:21.148Z,37.10
2022-12-18T00:51:48.761Z,29.48
2022-12-18T00:54:16.011Z,32.28
2022-12-18T00:56:49.009Z,35.97
2022-12-18T00:59:17.226Z,42.10
2022-12-18T01:01:43.956Z,34.08
2022-12-18T01:04:10.718Z,35.83
2022-12-18T01:06:37.476Z,28.80
2022-12-18T01:09:04.192Z,31.10
2022-12-18T01:11:31.506Z,32.58
2022-12-18T01:14:01.397Z,28.58
2022-12-18T01:16:28.081Z,32.08
2022-12-18T01:18:55.593Z,30.90
2022-12-18T01:21:24.189Z,31.10
2022-12-18T01:23:56.044Z,28.10
2022-12-18T01:26:23.565Z,31.05
2022-12-18T01:28:50.188Z,28.88
2022-12-18T01:31:28.557Z,30.52
2022-12-18T01:33:55.914Z,28.45
2022-12-18T01:36:24.021Z,33.65
2022-12-18T01:38:51.704Z,32.05
2022-12-18T01:41:20.392Z,31.73
2022-12-18T01:43:58.330Z,29.30
2022-12-18T01:46:28.893Z,32.47
2022-12-18T01:48:58.940Z,28.20
2022-12-18T01:51:27.973Z,31.27
2022-12-18T01:53:54.617Z,30.40
2022-12-18T01:56:22.205Z,35.20
2022-12-18T01:59:07.673Z,36.03
2022-12-18T02:01:34.506Z,30.38
2022-12-18T02:04:24.966Z,33.15
2022-12-18T02:06:59.746Z,28.90
2022-12-18T02:09:34.935Z,26.98
2022-12-18T02:12:19.461Z,28.90
2022-12-18T02:14:52.069Z,27.00
2022-12-18T02:17:23.442Z,26.10
2022-12-18T02:20:15.147Z,27.35
2022-12-18T02:22:51.169Z,28.35
2022-12-18T02:25:55.405Z,22.23
2022-12-18T02:28:25.166Z,24.83
2022-12-18T02:30:54.587Z,27.73
2022-12-18T02:33:22.584Z,23.70
2022-12-18T02:35:50.794Z,23.25
2022-12-18T02:38:18.060Z,27.88
2022-12-18T02:40:46.228Z,26.58
2022-12-18T02:43:16.624Z,31.67
2022-12-18T02:45:50.775Z,35.60
2022-12-18T02:48:20.159Z,32.20
2022-12-18T02:50:59.444Z,35.50
2022-12-18T02:53:33.318Z,29.75
2022-12-18T02:56:18.251Z,24.88
2022-12-18T02:59:02.198Z,27.35
2022-12-18T03:01:34.689Z,24.02
2022-12-18T03:04:08.298Z,24.13
2022-12-18T03:06:43.438Z,25.00
2022-12-18T03:09:25.693Z,24.55
2022-12-18T03:12:26.084Z,28.53
2022-12-18T03:15:01.629Z,24.75
2022-12-18T03:17:31.373Z,25.58
2022-12-18T03:20:03.395Z,24.95
2022-12-18T03:22:33.189Z,22.60
2022-12-18T03:25:03.230Z,27.25
2022-12-18T03:27:32.411Z,23.52
2022-12-18T03:30:08.531Z,24.73
2022-12-18T03:33:04.778Z,21.65
2022-12-18T03:35:37.272Z,28.13
2022-12-18T03:38:04.059Z,24.10
2022-12-18T03:40:48.673Z,22.60
2022-12-18T03:43:28.802Z,25.33
2022-12-18T03:46:23.651Z,27.50
2022-12-18T03:48:57.503Z,30.27
2022-12-18T03:51:47.703Z,30.13
2022-12-18T03:54:15.298Z,26.88
2022-12-18T03:56:48.084Z,26.40
2022-12-18T03:59:17.964Z,22.30
2022-12-18T04:01:48.843Z,28.17
2022-12-18T04:04:17.673Z,28.63
2022-12-18T04:06:46.389Z,24.83
2022-12-18T04:09:13.985Z,29.10
2022-12-18T04:11:43.200Z,27.17
2022-12-18T04:14:11.939Z,25.45
2022-12-18T04:16:42.637Z,24.65
2022-12-18T04:19:09.279Z,27.15
2022-12-18T04:21:35.859Z,26.02
2022-12-18T04:24:02.623Z,25.27
2022-12-18T04:26:29.232Z,26.27
2022-12-18T04:28:55.845Z,23.95
2022-12-18T04:31:22.830Z,25.35
2022-12-18T04:33:49.584Z,22.15
2022-12-18T04:36:16.218Z,27.00
2022-12-18T04:38:42.903Z,26.15
2022-12-18T04:41:09.542Z,26.35
2022-12-18T04:43:36.272Z,27.23
2022-12-18T04:46:07.589Z,30.90
2022-12-18T04:48:34.844Z,27.23
2022-12-18T04:51:01.476Z,26.05
2022-12-18T04:53:28.088Z,29.38
2022-12-18T04:56:23.976Z,27.33
2022-12-18T04:58:50.808Z,25.05
2022-12-18T05:01:18.815Z,28.58
2022-12-18T05:03:46.144Z,29.00
2022-12-18T05:06:12.884Z,26.40
2022-12-18T05:08:39.557Z,30.38
2022-12-18T05:11:12.102Z,26.55
2022-12-18T05:13:39.535Z,29.83
2022-12-18T05:16:07.101Z,26.95
2022-12-18T05:18:34.337Z,28.88
2022-12-18T05:21:01.049Z,33.97
2022-12-18T05:23:28.398Z,29.77
2022-12-18T05:25:55.953Z,27.42
2022-12-18T05:28:23.828Z,27.38
2022-12-18T05:30:55.411Z,27.60
2022-12-18T05:33:23.353Z,25.58
2022-12-18T05:35:54.309Z,25.05
2022-12-18T05:38:21.927Z,27.65
2022-12-18T05:40:49.330Z,22.15
2022-12-18T05:43:20.995Z,26.70
2022-12-18T05:45:48.877Z,23.80
2022-12-18T05:48:16.204Z,21.63
2022-12-18T05:50:46.522Z,22.33
2022-12-18T05:53:14.435Z,19.30
2022-12-18T05:55:42.429Z,20.73
2022-12-18T05:58:10.405Z,20.50
2022-12-18T06:00:41.914Z,20.73
2022-12-18T06:03:09.943Z,23.45
2022-12-18T06:05:39.473Z,26.80
2022-12-18T06:08:06.754Z,26.52
2022-12-18T06:10:33.911Z,23.20
2022-12-18T06:13:01.420Z,25.65
2022-12-18T06:15:28.116Z,28.65
2022-12-18T06:17:54.752Z,24.52
2022-12-18T06:20:21.621Z,27.38
2022-12-18T06:22:48.234Z,25.70
2022-12-18T06:25:15.104Z,20.52
2022-12-18T06:27:42.238Z,23.55
2022-12-18T06:30:10.543Z,26.95
2022-12-18T06:32:37.203Z,23.30
2022-12-18T06:35:04.895Z,26.50
2022-12-18T06:37:32.564Z,24.33
2022-12-18T06:39:59.469Z,23.60
2022-12-18T06:42:26.128Z,28.83
2022-12-18T06:44:52.878Z,25.88
2022-12-18T06:47:19.834Z,32.10
2022-12-18T06:49:46.498Z,32.75
2022-12-18T06:52:13.080Z,34.67
2022-12-18T06:54:39.692Z,32.70
2022-12-18T06:57:06.264Z,37.33
2022-12-18T06:59:32.865Z,35.67
2022-12-18T07:01:59.690Z,35.05
2022-12-18T07:04:30.797Z,38.35
2022-12-18T07:06:58.341Z,34.13
2022-12-18T07:09:25.410Z,39.72
2022-12-18T07:11:52.848Z,39.03
2022-12-18T07:14:19.466Z,36.63
2022-12-18T07:16:46.198Z,32.05
2022-12-18T07:19:12.827Z,31.33
2022-12-18T07:21:39.402Z,34.83
2022-12-18T07:24:06.692Z,36.72
2022-12-18T07:26:33.347Z,32.20
2022-12-18T07:28:59.946Z,30.33
2022-12-18T07:31:27.445Z,30.65
2022-12-18T07:33:54.608Z,35.88
2022-12-18T07:36:21.474Z,32.83
2022-12-18T07:38:49.288Z,30.95
2022-12-18T07:41:16.433Z,28.77
2022-12-18T07:43:43.621Z,30.70
2022-12-18T07:46:13.446Z,32.55
2022-12-18T07:48:41.524Z,29.60
2022-12-18T07:51:08.754Z,29.50
2022-12-18T07:53:37.052Z,33.92
2022-12-18T07:58:56.914Z,23.15
2022-12-18T08:01:23.722Z,26.65
2022-12-18T08:03:52.125Z,25.58
2022-12-18T08:06:19.218Z,26.70
2022-12-18T08:08:46.007Z,21.70
2022-12-18T08:11:12.622Z,31.27
2022-12-18T08:13:39.482Z,29.50
2022-12-18T08:16:08.141Z,23.13
2022-12-18T08:18:37.074Z,30.23
2022-12-18T08:21:16.096Z,34.80
2022-12-18T08:23:43.847Z,34.22
2022-12-18T08:26:12.248Z,31.80
2022-12-18T08:28:39.289Z,26.63
2022-12-18T08:31:06.479Z,30.13
2022-12-18T08:33:34.011Z,30.88
2022-12-18T08:36:01.394Z,29.20
2022-12-18T08:38:28.306Z,28.65
2022-12-18T08:41:01.916Z,28.77
2022-12-18T08:43:47.472Z,33.17
2022-12-18T08:46:18.039Z,27.20
2022-12-18T08:48:44.955Z,30.13
2022-12-18T08:51:11.880Z,29.58
2022-12-18T08:53:39.032Z,29.83
2022-12-18T08:56:06.371Z,29.63
2022-12-18T08:58:32.995Z,31.83
2022-12-18T09:01:08.217Z,33.70
2022-12-18T09:03:34.946Z,27.08
2022-12-18T09:06:01.956Z,30.23
2022-12-18T09:08:29.177Z,32.25
2022-12-18T09:10:56.226Z,31.17
2022-12-18T09:13:23.348Z,26.10
2022-12-18T09:15:52.977Z,30.10
2022-12-18T09:18:21.638Z,27.77
2022-12-18T09:20:48.569Z,30.10
2022-12-18T09:23:15.535Z,25.33
2022-12-18T09:25:42.236Z,24.15
2022-12-18T09:28:18.310Z,27.25
2022-12-18T09:30:48.192Z,28.02
2022-12-18T09:33:14.901Z,25.13
2022-12-18T09:35:43.493Z,26.75
2022-12-18T09:38:13.641Z,26.50
2022-12-18T09:40:56.947Z,24.45
2022-12-18T09:45:59.332Z,27.02
2022-12-18T09:48:48.760Z,32.63
2022-12-18T09:51:23.806Z,30.15
2022-12-18T09:53:59.480Z,30.40
2022-12-18T09:56:29.363Z,30.02
2022-12-18T09:59:04.632Z,28.27
2022-12-18T10:01:39.140Z,34.55
2022-12-18T10:04:10.756Z,35.90
2022-12-18T10:06:52.690Z,34.22
2022-12-18T10:09:28.282Z,51.53
2022-12-18T10:12:00.814Z,28.77
2022-12-18T10:14:48.129Z,31.63
2022-12-18T10:18:02.886Z,29.92
2022-12-18T10:20:43.106Z,34.63
2022-12-18T10:23:12.462Z,33.13
2022-12-18T10:26:06.082Z,38.78
2022-12-18T10:28:35.003Z,41.78
2022-12-18T10:31:01.854Z,33.40
2022-12-18T10:33:33.602Z,31.33
2022-12-18T10:36:01.259Z,34.10
2022-12-18T10:38:30.271Z,33.92
2022-12-18T10:40:56.835Z,29.63
2022-12-18T10:43:36.602Z,30.85
2022-12-18T10:46:06.891Z,36.40
2022-12-18T10:48:37.329Z,33.28
2022-12-18T10:51:12.876Z,36.58
2022-12-18T10:53:42.306Z,28.05
2022-12-18T10:56:09.887Z,26.25
2022-12-18T10:58:39.578Z,30.23
2022-12-18T11:01:17.838Z,31.52
2022-12-18T11:03:47.298Z,29.38
2022-12-18T11:06:17.357Z,30.40
2022-12-18T11:08:57.738Z,29.45
2022-12-18T11:11:25.528Z,30.55
2022-12-18T11:14:13.479Z,29.73
2022-12-18T11:17:24.448Z,29.65
2022-12-18T11:19:40.989Z,31.30
2022-12-18T11:22:29.742Z,30.73
2022-12-18T11:27:56.945Z,29.42
2022-12-18T11:30:23.537Z,31.23
2022-12-18T11:33:02.142Z,27.77
2022-12-18T11:35:34.508Z,29.27
2022-12-18T11:40:41.255Z,31.20
2022-12-18T11:43:15.932Z,33.58
2022-12-18T11:45:53.428Z,30.20
2022-12-18T11:48:28.645Z,33.25
2022-12-18T11:50:57.765Z,30.92
2022-12-18T11:53:26.502Z,32.72
2022-12-18T11:56:28.700Z,32.08
2022-12-18T11:59:17.669Z,31.33
2022-12-18T12:01:52.032Z,38.90
2022-12-18T12:04:36.411Z,30.67
2022-12-18T12:07:22.425Z,33.30
2022-12-18T12:09:49.003Z,33.08
2022-12-18T12:12:22.653Z,31.83
2022-12-18T12:15:14.174Z,29.60
2022-12-18T12:18:00.282Z,34.05
2022-12-18T12:20:58.736Z,33.83
2022-12-18T12:23:53.281Z,32.03
2022-12-18T12:26:45.910Z,33.72
2022-12-18T12:29:28.440Z,35.30
2022-12-18T12:32:43.607Z,31.88
2022-12-18T12:35:21.197Z,29.67
2022-12-18T12:38:20.838Z,33.53
2022-12-18T12:41:03.255Z,29.98
2022-12-18T12:43:50.948Z,36.20
2022-12-18T12:46:22.351Z,30.95
2022-12-18T12:49:00.831Z,29.38
2022-12-18T12:51:35.017Z,30.02
2022-12-18T12:54:04.692Z,29.10
2022-12-18T12:56:44.677Z,33.42
2022-12-18T12:59:27.291Z,30.02
2022-12-18T13:02:05.549Z,30.00
2022-12-18T13:04:51.017Z,26.38
2022-12-18T13:07:29.794Z,27.95
2022-12-18T13:10:17.872Z,35.83
2022-12-18T13:12:57.907Z,25.65
2022-12-18T13:15:49.428Z,29.60
2022-12-18T13:18:23.722Z,34.42
2022-12-18T13:21:02.908Z,37.85
2022-12-18T13:23:41.503Z,33.65
2022-12-18T13:26:11.858Z,30.58
2022-12-18T13:28:47.296Z,32.38
2022-12-18T13:31:42.171Z,35.20
2022-12-18T13:37:40.819Z,31.95
2022-12-18T13:40:57.150Z,31.23
2022-12-18T13:43:25.660Z,30.20
2022-12-18T13:46:05.361Z,33.28
2022-12-18T13:48:37.018Z,40.22
2022-12-18T13:51:09.727Z,36.67
2022-12-18T13:53:43.511Z,30.55
2022-12-18T13:56:10.529Z,31.17
2022-12-18T13:58:37.093Z,28.98
2022-12-18T14:01:05.743Z,27.42
2022-12-18T14:03:32.631Z,27.35
2022-12-18T14:06:03.890Z,25.15
2022-12-18T14:08:36.554Z,29.52
2022-12-18T14:11:06.292Z,29.92
2022-12-18T14:13:42.205Z,32.50
2022-12-18T14:16:14.997Z,30.25
2022-12-18T14:18:53.817Z,30.33
2022-12-18T14:21:30.598Z,33.25
2022-12-18T14:24:06.103Z,27.92
2022-12-18T14:26:34.265Z,34.83
2022-12-18T14:29:19.683Z,36.55
2022-12-18T14:32:18.722Z,28.50
2022-12-18T14:34:55.113Z,26.08
2022-12-18T14:37:25.985Z,31.75
2022-12-18T14:40:11.095Z,28.50
2022-12-18T14:42:38.759Z,30.23
2022-12-18T14:45:40.930Z,31.98
2022-12-18T14:48:19.699Z,30.58
2022-12-18T14:51:01.037Z,33.28
2022-12-18T14:53:37.358Z,27.08
2022-12-18T14:56:14.612Z,29.10
2022-12-18T14:58:46.812Z,31.08
2022-12-18T15:01:57.534Z,26.60
2022-12-18T15:04:31.396Z,31.13
2022-12-18T15:07:07.846Z,31.38
2022-12-18T15:09:34.486Z,34.03
2022-12-18T15:12:02.973Z,31.05
2022-12-18T15:14:41.345Z,29.85
2022-12-18T15:17:19.730Z,31.38
2022-12-18T15:19:48.038Z,33.35
2022-12-18T15:22:36.235Z,30.23
2022-12-18T15:25:23.915Z,23.58
2022-12-18T15:27:50.577Z,30.92
2022-12-18T15:30:22.936Z,26.75
2022-12-18T15:32:50.551Z,27.17
2022-12-18T15:35:17.122Z,31.38
2022-12-18T15:37:44.069Z,31.38
2022-12-18T15:40:18.816Z,29.88
2022-12-18T15:43:06.933Z,25.17
2022-12-18T15:45:34.028Z,26.98
2022-12-18T15:48:01.069Z,32.53
2022-12-18T15:50:27.715Z,27.70
2022-12-18T15:52:56.493Z,31.10
2022-12-18T15:55:43.555Z,32.65
2022-12-18T15:58:12.374Z,33.50
2022-12-18T16:00:41.217Z,33.35
2022-12-18T16:03:08.487Z,36.58
2022-12-18T16:05:35.321Z,30.17
2022-12-18T16:08:01.957Z,30.05
2022-12-18T16:10:28.730Z,30.63
2022-12-18T16:12:55.622Z,29.70
2022-12-18T16:15:24.743Z,29.63
2022-12-18T16:17:52.941Z,31.25
2022-12-18T16:20:23.436Z,27.88
2022-12-18T16:22:50.632Z,31.83
2022-12-18T16:25:26.959Z,31.67
2022-12-18T16:27:56.080Z,30.85
2022-12-18T16:30:28.832Z,30.02
2022-12-18T16:32:59.673Z,33.38
2022-12-18T16:35:27.555Z,32.00
2022-12-18T16:37:54.298Z,26.17
2022-12-18T16:40:21.256Z,33.97
2022-12-18T16:42:47.978Z,32.47
2022-12-18T16:45:18.277Z,33.47
2022-12-18T16:47:45.307Z,33.20
2022-12-18T16:50:12.486Z,36.67
2022-12-18T16:52:42.307Z,30.95
2022-12-18T16:55:09.437Z,30.40
2022-12-18T16:57:36.179Z,36.88
2022-12-18T17:00:05.677Z,31.95
2022-12-18T17:02:33.643Z,33.75
2022-12-18T17:05:00.931Z,32.17
2022-12-18T17:07:28.707Z,30.60
2022-12-18T17:09:55.975Z,34.92
2022-12-18T17:12:28.939Z,34.35
2022-12-18T17:14:55.648Z,31.38
2022-12-18T17:17:23.321Z,36.72
2022-12-18T17:19:52.260Z,39.15
2022-12-18T17:22:20.043Z,32.42
2022-12-18T17:24:49.935Z,31.23
2022-12-18T17:27:17.002Z,32.83
2022-12-18T17:29:48.019Z,38.33
2022-12-18T17:32:16.396Z,34.17
2022-12-18T17:34:45.462Z,35.15
2022-12-18T17:37:12.665Z,35.13
2022-12-18T17:39:41.955Z,41.38
2022-12-18T17:42:15.303Z,41.58
2022-12-18T17:44:42.719Z,43.95
2022-12-18T17:47:12.796Z,40.22
2022-12-18T17:49:43.245Z,32.15
2022-12-18T17:52:10.523Z,40.90
2022-12-18T17:54:39.967Z,33.60
2022-12-18T17:57:08.248Z,33.53
2022-12-18T17:59:34.970Z,34.45
2022-12-18T18:02:01.653Z,31.25
2022-12-18T18:04:28.443Z,41.20
2022-12-18T18:06:55.051Z,39.17
2022-12-18T18:09:21.706Z,39.22
2022-12-18T18:12:06.549Z,33.47
2022-12-18T18:14:33.574Z,38.58
2022-12-18T18:17:04.679Z,39.97
2022-12-18T18:19:33.002Z,34.58
2022-12-18T18:21:59.694Z,36.50
2022-12-18T18:24:26.395Z,37.60
2022-12-18T18:26:53.356Z,37.30
2022-12-18T18:29:25.404Z,37.88
2022-12-18T18:31:54.071Z,32.55
2022-12-18T18:34:23.700Z,38.28
2022-12-18T18:36:50.737Z,37.88
2022-12-18T18:39:18.278Z,33.95
2022-12-18T18:41:45.427Z,30.60
2022-12-18T18:44:14.725Z,38.30
2022-12-18T18:46:41.559Z,38.97
2022-12-18T18:49:08.202Z,32.50
2022-12-18T18:51:35.485Z,40.22
2022-12-18T18:54:02.601Z,34.05
2022-12-18T18:59:16.693Z,33.88
2022-12-18T19:01:43.563Z,40.30
2022-12-18T19:04:10.349Z,37.38
2022-12-18T19:06:36.937Z,35.08
2022-12-18T19:09:05.041Z,38.95
2022-12-18T19:11:51.076Z,53.97
2022-12-18T19:14:18.070Z,37.67
2022-12-18T19:16:45.530Z,36.40
2022-12-18T19:19:13.062Z,40.97
2022-12-18T19:21:40.937Z,45.70
2022-12-18T19:24:07.964Z,50.60
2022-12-18T19:26:36.406Z,41.55
2022-12-18T19:29:08.254Z,41.28
2022-12-18T19:31:37.039Z,39.30
2022-12-18T19:34:06.789Z,38.30
2022-12-18T19:36:36.828Z,40.90
2022-12-18T19:39:13.214Z,38.15
2022-12-18T19:41:42.273Z,36.22
2022-12-18T19:44:11.966Z,36.85
2022-12-18T19:46:41.699Z,36.47
2022-12-18T19:49:13.660Z,35.83
2022-12-18T19:51:44.364Z,37.20
2022-12-18T19:54:16.774Z,40.92
2022-12-18T19:56:44.630Z,40.70
2022-12-18T19:59:11.253Z,36.95
2022-12-18T20:01:38.120Z,40.20
2022-12-18T20:04:05.162Z,42.45
2022-12-18T20:06:46.370Z,38.50
2022-12-18T20:09:12.987Z,35.83
2022-12-18T20:11:41.885Z,33.72
2022-12-18T20:14:11.113Z,40.50
2022-12-18T20:16:38.305Z,36.42
2022-12-18T20:19:05.505Z,37.50
2022-12-18T20:21:32.445Z,35.20
2022-12-18T20:24:00.223Z,34.78
2022-12-18T20:26:27.501Z,46.42
2022-12-18T20:28:55.580Z,32.78
2022-12-18T20:31:23.186Z,40.95
2022-12-18T20:33:52.249Z,31.33
2022-12-18T20:36:25.877Z,36.50
2022-12-18T20:38:57.042Z,35.67
2022-12-18T20:41:24.921Z,33.25
2022-12-18T20:43:51.609Z,35.88
2022-12-18T20:46:18.766Z,41.80
2022-12-18T20:48:46.174Z,35.28
2022-12-18T20:51:16.833Z,35.58
2022-12-18T20:53:44.804Z,35.88
2022-12-18T20:56:18.907Z,36.33
2022-12-18T20:58:49.809Z,39.65
2022-12-18T21:01:19.801Z,41.50
2022-12-18T21:03:48.112Z,35.10
2022-12-18T21:06:17.271Z,36.15
2022-12-18T21:08:44.705Z,33.20
2022-12-18T21:11:35.405Z,45.05
2022-12-18T21:14:08.971Z,40.00
2022-12-18T21:16:35.727Z,42.78
2022-12-18T21:19:02.515Z,41.35
2022-12-18T21:21:29.284Z,37.63
2022-12-18T21:24:01.380Z,41.90
2022-12-18T21:26:28.751Z,35.28
2022-12-18T21:29:00.309Z,37.83
2022-12-18T21:31:29.926Z,36.70
2022-12-18T21:34:01.829Z,37.78
2022-12-18T21:36:30.372Z,36.97
2022-12-18T21:38:58.341Z,38.38
2022-12-18T21:41:44.232Z,39.03
2022-12-18T21:44:16.280Z,36.47
2022-12-18T21:46:46.344Z,40.92
2022-12-18T21:49:22.876Z,35.72
2022-12-18T21:51:51.779Z,36.40
2022-12-18T21:54:19.395Z,37.83
2022-12-18T21:56:55.840Z,34.85
2022-12-18T21:59:25.194Z,34.50
2022-12-18T22:01:54.134Z,41.92
2022-12-18T22:04:21.726Z,37.63
2022-12-18T22:06:49.379Z,38.53
2022-12-18T22:09:18.809Z,35.53
2022-12-18T22:11:46.098Z,33.50
2022-12-18T22:14:14.763Z,38.33
2022-12-18T22:16:42.565Z,41.65
2022-12-18T22:19:11.426Z,34.45
2022-12-18T22:21:41.585Z,39.05
2022-12-18T22:24:13.327Z,37.78
2022-12-18T22:26:40.530Z,38.92
2022-12-18T22:29:26.538Z,39.25
2022-12-18T22:31:53.154Z,47.47
2022-12-18T22:34:22.986Z,38.78
2022-12-18T22:36:50.817Z,42.95
2022-12-18T22:39:26.261Z,38.28
2022-12-18T22:41:55.667Z,41.40
2022-12-18T22:44:25.222Z,41.13
2022-12-18T22:46:59.932Z,44.20
2022-12-18T22:49:35.083Z,41.63
2022-12-18T22:52:06.498Z,38.40
2022-12-18T22:54:33.106Z,41.90
2022-12-18T22:56:59.681Z,39.17
2022-12-18T22:59:26.370Z,38.38
2022-12-18T23:01:58.721Z,43.40
2022-12-18T23:04:29.108Z,34.33
2022-12-18T23:07:04.038Z,38.08
2022-12-18T23:09:30.675Z,38.00
2022-12-18T23:11:57.805Z,37.83
2022-12-18T23:14:24.425Z,36.10
2022-12-18T23:16:52.285Z,33.75
2022-12-18T23:19:20.064Z,38.28
2022-12-18T23:21:46.706Z,38.35
2022-12-18T23:24:13.696Z,35.33
2022-12-18T23:26:40.546Z,37.28
2022-12-18T23:29:08.025Z,38.35
2022-12-18T23:31:36.870Z,38.58
2022-12-18T23:34:05.535Z,41.03
2022-12-18T23:36:35.905Z,38.58
2022-12-18T23:39:25.810Z,40.13
2022-12-18T23:41:58.083Z,39.95
2022-12-18T23:44:25.041Z,36.92
2022-12-18T23:46:51.839Z,39.22
2022-12-18T23:49:18.541Z,37.25
2022-12-18T23:51:45.188Z,37.60
2022-12-18T23:54:11.775Z,33.55
2022-12-18T23:56:38.388Z,35.97
2022-12-18T23:59:05.063Z,38.58
